Latest Weather Observations for Cummins Airport

IDS60801

Issued at 4:31 pm CDT Tuesday 28 March 2017 (issued every 30 minutes, with the page automatically refreshed every 10 minutes)

About weather observations | Map of weather stations | Latest weather observations for SA | Other Formats
Station Details ID: 018217 Name: CUMMINS AERO Lat: -34.25 Lon: 135.71 Height: 60.11 m
Data from the previous 72 hours. | See also: Recent months at Cummins Airport
Date/Time
CDT
Temp
°C
App
Temp
°C
Dew
Point
°C
Rel
Hum
%
Delta-T
°C
Wind Press
QNH
hPa
Press
MSL
hPa
Rain since
9am
mm
Dir  Spd
km/h
Gust
km/h
Spd
kts
Gust
kts
28/04:30pm 21.9 17.2 10.7 49 6.2 W 26 33 14 18 1013.7 1013.5 0.0
28/04:00pm 22.9 17.4 10.7 46 6.8 W 30 39 16 21 1013.9 1013.7 0.0
28/03:30pm 23.1 18.3 10.2 44 7.1 WNW 26 39 14 21 1013.9 1013.7 0.0
28/03:00pm 22.6 17.4 10.1 45 6.8 W 28 39 15 21 1014.1 1013.9 0.0
28/02:30pm 22.9 19.1 11.0 47 6.6 WNW 22 37 12 20 1014.2 1014.0 0.0
28/02:00pm 22.7 18.6 10.2 45 6.8 WNW 22 32 12 17 1014.4 1014.2 0.0
28/01:30pm 22.3 18.8 10.8 48 6.4 WNW 20 32 11 17 1014.7 1014.5 0.0
28/01:00pm 22.8 19.2 10.6 46 6.7 WNW 20 30 11 16 1015.4 1015.2 0.0
28/12:30pm 22.0 19.0 10.5 48 6.3 NW 17 26 9 14 1015.9 1015.7 0.0
28/12:00pm 21.5 18.1 10.6 50 6.0 WNW 19 26 10 14 1016.3 1016.1 0.0
28/11:30am 20.2 17.1 10.3 53 5.4 WNW 17 28 9 15 1016.7 1016.5 0.0
28/11:00am 20.0 16.6 11.2 57 4.8 W 20 30 11 16 1016.9 1016.7 0.0
28/10:30am 19.7 17.5 12.0 61 4.3 WNW 15 20 8 11 1017.0 1016.8 0.0
28/10:00am 18.6 17.8 12.8 69 3.3 NW 9 13 5 7 1017.1 1016.9 0.0
28/09:30am 16.8 16.0 12.9 78 2.2 N 9 13 5 7 1017.0 1016.8 0.0
28/09:00am 14.5 13.3 12.7 89 1.0 NNE 11 13 6 7 1017.0 1016.8 0.0
28/08:30am 12.3 12.1 11.8 97 0.3 NNE 4 11 2 6 1016.8 1016.6 0.0
28/08:00am 11.2 10.3 10.7 97 0.3 NNE 6 7 3 4 1016.5 1016.3 0.0
28/07:30am 11.5 10.6 11.2 98 0.2 NNE 7 9 4 5 1016.4 1016.2 0.0
28/07:00am 10.7 9.8 10.5 99 0.1 NNE 6 7 3 4 1016.0 1015.8 0.0
28/06:30am 9.8 7.7 9.7 99 0.1 NE 11 13 6 7 1016.1 1015.9 0.0
28/06:00am 9.2 6.9 9.1 99 0.0 NE 11 13 6 7 1016.2 1016.0 0.0
28/05:30am 9.4 7.5 9.1 98 0.1 NNE 9 13 5 7 1016.0 1015.8 0.0
28/05:00am 9.3 6.6 8.8 97 0.2 NE 13 15 7 8 1015.9 1015.7 0.0
28/04:30am 9.3 7.7 8.7 96 0.3 NNE 7 11 4 6 1016.2 1016.0 0.0
28/04:00am 10.0 8.7 9.1 94 0.4 NE 6 11 3 6 1016.3 1016.1 0.0
28/03:30am 10.2 10.0 9.0 92 0.6 CALM 0 0 0 0 1016.5 1016.3 0.0
28/03:00am 11.1 10.0 9.9 92 0.6 NW 6 7 3 4 1016.5 1016.3 0.0
28/02:30am 10.8 10.6 9.2 90 0.8 CALM 0 0 0 0 1016.6 1016.4 0.0
28/02:00am 12.3 11.2 10.7 90 0.8 NNW 7 9 4 5 1016.9 1016.7 0.0
28/01:30am 12.5 11.5 10.9 90 0.8 NE 7 9 4 5 1017.1 1016.9 0.0
28/01:00am 12.6 11.5 10.1 85 1.3 WNW 6 7 3 4 1017.2 1017.0 0.0
28/12:30am 13.1 12.2 10.6 85 1.3 N 6 6 3 3 1017.5 1017.3 0.0
28/12:00am 13.0 13.2 10.4 84 1.3 CALM 0 4 0 2 1017.5 1017.3 0.0
 
Date/Time
CDT
Temp
°C
App
Temp
°C
Dew
Point
°C
Rel
Hum
%
Delta-T
°C
Wind Press
QNH
hPa
Press
MSL
hPa
Rain since
9am
mm
Dir  Spd
km/h
Gust
km/h
Spd
kts
Gust
kts
27/11:30pm 13.8 12.4 11.0 83 1.5 WNW 9 11 5 6 1017.5 1017.3 0.0
27/11:00pm 14.5 13.2 11.1 80 1.8 WNW 9 9 5 5 1017.6 1017.4 0.0
27/10:30pm 15.1 13.8 11.3 78 2.0 W 9 11 5 6 1017.6 1017.4 0.0
27/10:00pm 16.2 13.9 11.8 75 2.4 W 15 19 8 10 1017.6 1017.4 0.0
27/09:30pm 16.1 14.2 11.9 76 2.3 WNW 13 15 7 8 1017.4 1017.2 0.0
27/09:00pm 16.8 14.5 11.9 73 2.7 WNW 15 17 8 9 1017.1 1016.9 0.0
27/08:30pm 16.8 15.2 11.5 71 2.9 WNW 11 15 6 8 1016.7 1016.5 0.0
27/08:00pm 17.5 15.2 10.6 64 3.7 W 13 17 7 9 1016.4 1016.2 0.0
27/07:30pm 18.5 15.0 10.3 59 4.4 WNW 19 22 10 12 1016.3 1016.1 0.0
27/07:00pm 19.4 14.9 10.1 55 5.0 W 24 32 13 17 1016.0 1015.8 0.0
27/06:30pm 20.2 15.5 9.2 49 5.8 WSW 24 33 13 18 1015.8 1015.6 0.0
27/06:00pm 20.5 14.8 8.5 46 6.3 W 28 37 15 20 1015.7 1015.5 0.0
27/05:30pm 21.4 15.9 7.6 41 7.2 WSW 26 33 14 18 1015.6 1015.4 0.0
27/05:00pm 20.9 14.4 8.9 46 6.4 W 33 43 18 23 1015.5 1015.3 0.0
27/04:30pm 22.1 16.3 9.6 45 6.7 WSW 30 43 16 23 1015.5 1015.3 0.0
27/04:00pm 22.4 16.5 10.5 47 6.5 W 32 44 17 24 1015.5 1015.3 0.0
27/03:40pm 23.1 18.0 10.5 45 7.0 W 28 48 15 26 1015.6 1015.4 0.0
27/03:30pm 23.8 17.7 9.8 41 7.7 W 32 43 17 23 1015.5 1015.3 0.0
27/03:00pm 23.6 18.3 9.9 42 7.5 WSW 28 41 15 22 1015.6 1015.4 0.0
27/02:46pm 23.2 17.6 10.3 44 7.1 W 30 48 16 26 1015.6 1015.4 0.0
27/02:30pm 23.0 16.7 9.8 43 7.2 W 33 50 18 27 1015.9 1015.7 0.0
27/02:00pm 22.0 15.8 9.9 46 6.6 W 33 48 18 26 1016.2 1016.0 0.0
27/01:30pm 22.3 16.0 9.8 45 6.8 W 33 52 18 28 1016.1 1015.9 0.0
27/01:00pm 22.4 17.1 9.9 45 6.8 W 28 46 15 25 1016.1 1015.9 0.0
27/12:38pm 22.0 16.7 9.9 46 6.6 WSW 28 46 15 25 1016.2 1016.0 0.0
27/12:30pm 22.6 16.4 10.1 45 6.8 W 33 50 18 27 1016.3 1016.1 0.0
27/12:18pm 22.5 16.4 10.3 46 6.7 WSW 33 52 18 28 1016.3 1016.1 0.0
27/12:00pm 21.9 15.5 10.7 49 6.2 W 35 44 19 24 1016.0 1015.8 0.0
27/11:30am 22.0 16.2 10.8 49 6.2 W 32 46 17 25 1015.8 1015.6 0.0
27/11:00am 21.0 14.8 10.2 50 5.9 W 33 50 18 27 1015.6 1015.4 0.0
27/10:52am 21.0 14.9 9.9 49 6.0 WSW 32 50 17 27 1015.5 1015.3 0.0
27/10:30am 21.9 16.0 11.3 51 5.9 WSW 33 43 18 23 1015.4 1015.2 0.0
27/10:00am 20.6 13.3 11.5 56 5.0 W 41 48 22 26 1015.1 1014.9 0.0
27/09:30am 20.2 14.7 12.4 61 4.4 WSW 33 43 18 23 1014.7 1014.5 0.0
27/09:00am 19.5 14.9 13.4 68 3.5 W 30 37 16 20 1014.4 1014.2 0.0
27/08:30am 18.9 15.5 13.7 72 3.0 W 24 30 13 16 1013.9 1013.7 0.0
27/08:00am 18.6 14.5 13.7 73 2.8 W 28 37 15 20 1013.4 1013.2 0.0
27/07:30am 18.6 15.0 14.3 76 2.5 W 26 33 14 18 1012.9 1012.7 0.0
27/07:00am 18.9 15.6 15.0 78 2.3 W 26 35 14 19 1012.4 1012.2 0.0
27/06:30am 18.8 16.1 14.5 76 2.5 W 22 32 12 17 1011.9 1011.7 0.0
27/06:00am 19.1 17.9 16.0 82 1.9 W 17 24 9 13 1011.3 1011.1 0.0
27/05:30am 19.1 16.7 15.4 79 2.2 W 22 30 12 16 1010.5 1010.4 0.0
27/05:00am 19.4 16.9 16.2 82 1.9 W 24 30 13 16 1009.4 1009.3 0.0
27/04:30am 19.6 16.8 17.2 86 1.5 W 28 39 15 21 1009.5 1009.4 0.0
27/04:00am 19.6 18.1 17.6 88 1.2 WSW 22 30 12 16 1009.4 1009.3 0.0
27/03:30am 20.0 18.1 17.6 86 1.5 WSW 24 35 13 19 1009.1 1009.0 0.0
27/03:00am 20.5 17.9 17.9 85 1.6 WSW 28 37 15 20 1008.5 1008.4 0.0
27/02:30am 20.8 17.9 18.0 84 1.7 WSW 30 39 16 21 1008.5 1008.4 0.0
27/02:00am 21.0 18.6 18.2 84 1.7 WSW 28 43 15 23 1008.0 1007.9 0.0
27/01:30am 21.4 18.7 18.4 83 1.9 WSW 30 46 16 25 1008.2 1008.1 0.0
27/01:00am 21.7 19.4 18.5 82 2.0 WSW 28 46 15 25 1008.0 1007.9 0.0
27/12:57am 21.7 19.4 18.5 82 2.0 WSW 28 46 15 25 1007.8 1007.7 0.0
27/12:30am 22.1 19.6 18.1 78 2.5 WSW 28 41 15 22 1007.4 1007.3 0.0
27/12:00am 22.8 20.8 17.5 72 3.3 WSW 24 41 13 22 1006.9 1006.8 0.0
 
Date/Time
CDT
Temp
°C
App
Temp
°C
Dew
Point
°C
Rel
Hum
%
Delta-T
°C
Wind Press
QNH
hPa
Press
MSL
hPa
Rain since
9am
mm
Dir  Spd
km/h
Gust
km/h
Spd
kts
Gust
kts
26/11:30pm 24.0 21.9 16.3 62 4.7 WSW 22 35 12 19 1006.5 1006.4 0.0
26/11:22pm 24.2 20.5 15.9 59 5.0 WSW 30 48 16 26 1006.2 1006.0 0.0
26/11:00pm 26.0 21.3 14.8 50 6.7 W 33 46 18 25 1005.5 1005.3 0.0
26/10:30pm 27.1 24.5 13.8 44 7.9 WNW 20 30 11 16 1005.2 1005.0 0.0
26/10:00pm 28.7 28.1 13.4 39 9.1 NNE 9 15 5 8 1004.1 1003.9 0.0
26/09:30pm 29.6 28.0 12.9 35 9.9 ENE 13 17 7 9 1003.9 1003.7 0.0
26/09:00pm 30.4 27.6 13.2 35 10.3 ENE 20 26 11 14 1003.8 1003.6 0.0
26/08:30pm 30.4 27.5 14.1 37 9.9 ENE 22 28 12 15 1003.7 1003.5 0.0
26/08:00pm 30.0 27.7 14.1 37 9.6 ENE 19 24 10 13 1003.9 1003.7 0.0
26/07:30pm 30.4 28.0 14.5 38 9.7 ENE 20 28 11 15 1003.8 1003.6 0.0
26/07:00pm 31.1 28.7 14.3 36 10.2 ENE 20 28 11 15 1003.8 1003.6 0.0
26/06:30pm 33.2 30.8 14.3 32 11.6 ENE 20 30 11 16 1003.8 1003.6 0.0
26/06:00pm 34.4 32.0 14.3 30 12.4 ENE 20 28 11 15 1003.9 1003.7 0.0
26/05:30pm 35.3 33.3 15.6 31 12.4 ENE 20 32 11 17 1003.9 1003.7 0.0
26/05:00pm 35.2 32.6 15.0 30 12.6 ENE 22 32 12 17 1004.3 1004.1 0.0
26/04:30pm 34.0 31.4 15.0 32 11.8 ENE 22 33 12 18 1004.6 1004.4 0.0
26/04:00pm 34.7 32.6 16.1 33 11.8 E 22 30 12 16 1005.0 1004.8 0.0
26/03:30pm 33.8 31.0 15.3 33 11.6 ENE 24 35 13 19 1005.4 1005.2 0.0
26/03:00pm 33.2 30.8 16.5 36 10.6 E 24 33 13 18 1006.2 1006.0 0.0
26/02:30pm 32.2 29.8 16.5 39 9.9 E 24 33 13 18 1006.9 1006.8 0.0
26/02:00pm 31.7 29.8 16.8 40 9.4 E 22 33 12 18 1007.4 1007.3 0.0
26/01:30pm 31.3 30.0 16.9 42 9.1 E 19 24 10 13 1008.6 1008.5 0.0
26/01:00pm 31.0 30.2 17.0 43 8.9 E 17 22 9 12 1009.2 1009.1 0.0
26/12:30pm 31.1 30.3 17.0 42 8.9 ENE 17 24 9 13 1009.6 1009.5 0.0
26/12:00pm 30.6 29.8 17.0 44 8.6 ESE 17 20 9 11 1010.1 1010.0 0.0
26/11:30am 30.7 30.7 16.3 42 9.0 NE 11 17 6 9 1010.8 1010.7 0.0
26/11:00am 29.8 29.8 16.2 43 8.5 NE 11 15 6 8 1011.0 1010.8 0.0
26/10:30am 29.3 29.9 16.8 47 7.9 E 9 11 5 6 1010.8 1010.7 0.0
26/10:00am 26.9 27.5 16.8 54 6.3 SE 9 15 5 8 1011.1 1010.9 0.0
26/09:30am 24.4 25.3 17.6 66 4.3 SE 9 11 5 6 1011.3 1011.1 0.0
26/09:00am 23.5 25.1 17.9 71 3.5 SE 6 9 3 5 1011.4 1011.2 0.0
26/08:30am 20.6 22.3 18.0 85 1.6 SE 6 7 3 4 1011.2 1011.0 0.0
26/08:00am 19.1 20.0 16.7 86 1.4 SSE 7 9 4 5 1011.1 1010.9 0.0
26/07:30am 20.3 21.6 17.1 82 2.0 SSE 6 7 3 4 1010.7 1010.6 0.0
26/07:00am 21.4 24.0 17.6 79 2.3 CALM 0 4 0 2 1010.7 1010.6 0.0
26/06:30am 21.6 22.7 18.0 80 2.2 NE 9 11 5 6 1010.5 1010.4 0.0
26/06:00am 21.7 22.4 17.9 79 2.4 NE 11 17 6 9 1010.2 1010.1 0.0
26/05:30am 21.7 22.1 18.1 80 2.2 NE 13 20 7 11 1010.0 1009.9 0.0
26/05:00am 21.4 21.4 18.0 81 2.1 NE 15 19 8 10 1009.7 1009.6 0.0
26/04:30am 21.4 21.0 18.0 81 2.1 NE 17 24 9 13 1009.9 1009.8 0.0
26/04:00am 21.3 20.4 17.7 80 2.2 ENE 19 26 10 14 1009.8 1009.7 0.0
26/03:30am 21.1 20.9 17.5 80 2.2 ENE 15 24 8 13 1011.0 1010.8 0.0
26/03:00am 21.1 21.6 17.5 80 2.2 ENE 11 17 6 9 1011.8 1011.6 0.0
26/02:30am 21.1 21.5 17.3 79 2.3 NE 11 17 6 9 1012.4 1012.2 0.0
26/02:00am 21.0 22.3 17.6 81 2.1 ENE 7 13 4 7 1012.7 1012.5 0.0
26/01:30am 20.6 23.3 17.8 84 1.7 CALM 0 0 0 0 1013.2 1013.0 0.0
26/01:00am 20.6 21.4 17.4 82 2.0 ESE 9 13 5 7 1013.5 1013.3 0.0
26/12:30am 20.7 22.8 17.1 80 2.2 SSE 2 7 1 4 1013.7 1013.5 0.0
26/12:00am 20.8 21.5 17.0 79 2.3 SE 9 13 5 7 1013.8 1013.6 0.0
 
Date/Time
CDT
Temp
°C
App
Temp
°C
Dew
Point
°C
Rel
Hum
%
Delta-T
°C
Wind Press
QNH
hPa
Press
MSL
hPa
Rain since
9am
mm
Dir  Spd
km/h
Gust
km/h
Spd
kts
Gust
kts
25/11:30pm 20.7 21.8 16.5 77 2.5 E 6 9 3 5 1014.3 1014.1 0.0
25/11:00pm 20.9 21.8 16.1 74 2.9 ENE 6 9 3 5 1014.3 1014.1 0.0
25/10:30pm 20.8 21.7 16.0 74 2.9 E 6 11 3 6 1014.0 1013.8 0.0
25/10:00pm 21.0 21.1 16.4 75 2.8 E 11 15 6 8 1013.9 1013.7 0.0
25/09:30pm 21.1 23.0 16.7 76 2.7 E 2 7 1 4 1014.1 1013.9 0.0
25/09:00pm 21.4 22.5 17.0 76 2.7 ENE 7 11 4 6 1013.6 1013.4 0.0
25/08:30pm 21.8 22.6 17.2 75 2.8 E 9 13 5 7 1013.3 1013.1 0.0
25/08:00pm 22.0 22.6 16.9 73 3.1 E 9 17 5 9 1013.0 1012.8 0.0
25/07:30pm 22.5 23.3 17.2 72 3.3 E 9 13 5 7 1012.9 1012.7 0.0
25/07:00pm 23.2 22.8 17.2 69 3.7 E 15 19 8 10 1012.8 1012.6 0.0
25/06:30pm 24.5 24.0 17.0 63 4.6 E 15 19 8 10 1012.6 1012.4 0.0
25/06:00pm 25.4 25.0 17.1 60 5.2 ENE 15 20 8 11 1012.3 1012.1 0.0
25/05:30pm 25.9 26.0 16.5 56 5.8 E 11 15 6 8 1012.4 1012.2 0.0
25/05:00pm 26.5 26.4 16.1 52 6.4 NE 11 15 6 8 1012.7 1012.5 0.0

Other Formats:

Comma delimited format used in spreadsheet applications
http://www.bom.gov.au/fwo/IDS60801/IDS60801.95663.axf

JavaScript Object Notation format (JSON) in row-major order
http://www.bom.gov.au/fwo/IDS60801/IDS60801.95663.json